Time;durP1;ratioP1;P1;durP2;ratioP2;P2;SDS_P1;SDS_P2;PMS_P1;PMS_P2;Temp;Humidity;BMP_temperature;BMP_pressure;BME280_temperature;BME280_humidity;BME280_pressure;Samples;Min_cycle;Max_cycle;Signal;HPM_P1;HPM_P2
2022/01/14 00:01:52;;;;;;;94.97;18.70;;;2.90;99.90;;;;;;5019461;28;20276;-89
2022/01/14 00:04:23;;;;;;;94.13;19.10;;;2.90;99.90;;;;;;4996994;28;20246;-89
2022/01/14 00:06:51;;;;;;;124.60;20.23;;;2.90;99.90;;;;;;4995925;28;20233;-89
2022/01/14 00:09:18;;;;;;;129.60;20.53;;;3.00;99.90;;;;;;5013087;28;20218;-90
2022/01/14 00:11:49;;;;;;;62.13;13.77;;;3.00;99.90;;;;;;4994722;28;20241;-89
2022/01/14 00:14:35;;;;;;;112.40;19.30;;;3.00;99.90;;;;;;4996632;28;20686;-89
2022/01/14 00:17:04;;;;;;;88.30;17.07;;;2.90;99.90;;;;;;4994918;28;20225;-87
2022/01/14 00:19:32;;;;;;;78.17;16.60;;;2.90;99.90;;;;;;4994685;28;20214;-89
2022/01/14 00:22:05;;;;;;;75.83;18.77;;;2.90;99.90;;;;;;5011390;28;20210;-90
2022/01/14 00:31:38;;;;;;;64.63;18.13;;;2.90;99.90;;;;;;5015007;28;20214;-89
2022/01/14 00:32:58;;;;;;;111.10;19.43;;;2.90;99.90;;;;;;4994470;28;20222;-89
2022/01/14 00:35:27;;;;;;;92.00;18.20;;;2.90;99.90;;;;;;4998077;28;20214;-90
2022/01/14 00:37:54;;;;;;;107.00;17.93;;;2.90;99.90;;;;;;4995587;28;20220;-90
2022/01/14 00:40:22;;;;;;;73.07;16.90;;;;;;;;;;4991852;28;20215;-89
2022/01/14 00:42:50;;;;;;;82.43;16.87;;;2.70;99.90;;;;;;5010721;28;20257;-90
2022/01/14 00:45:17;;;;;;;81.10;17.37;;;2.90;99.90;;;;;;4995954;28;20807;-90
2022/01/14 00:47:44;;;;;;;91.80;15.27;;;2.90;99.90;;;;;;4999318;28;20226;-87
2022/01/14 00:50:13;;;;;;;83.33;18.17;;;3.30;99.90;;;;;;5013929;28;20555;-88
2022/01/14 00:52:43;;;;;;;72.70;15.83;;;2.90;99.90;;;;;;4996967;28;20602;-89
2022/01/14 00:55:14;;;;;;;85.90;18.80;;;2.90;99.90;;;;;;4998652;28;20210;-88
2022/01/14 01:00:27;;;;;;;84.83;18.33;;;2.90;99.90;;;;;;4996172;28;20284;-90
2022/01/14 01:02:54;;;;;;;85.67;17.83;;;2.90;99.90;;;;;;4996222;28;20234;-89
2022/01/14 01:05:22;;;;;;;69.13;16.37;;;2.90;99.90;;;;;;5000734;28;20222;-89
2022/01/14 01:08:00;;;;;;;92.27;17.90;;;2.90;99.90;;;;;;4997768;28;20222;-89
2022/01/14 01:10:28;;;;;;;95.50;16.50;;;;;;;;;;5015590;28;20213;-89
2022/01/14 01:13:00;;;;;;;48.60;12.93;;;2.90;99.90;;;;;;5014415;28;20234;-89
2022/01/14 01:15:27;;;;;;;77.13;17.73;;;2.70;99.90;;;;;;4994909;28;20219;-89
2022/01/14 01:17:55;;;;;;;81.23;16.80;;;2.90;99.90;;;;;;5016872;28;20214;-89
2022/01/14 01:20:22;;;;;;;76.63;17.97;;;2.90;99.90;;;;;;4994513;28;20194;-89
2022/01/14 01:22:53;;;;;;;76.20;17.63;;;2.90;99.90;;;;;;4988698;28;20231;-89
2022/01/14 01:25:44;;;;;;;74.07;19.00;;;2.80;99.90;;;;;;4998972;28;20225;-89
2022/01/14 01:28:11;;;;;;;58.37;13.50;;;2.80;99.90;;;;;;4999945;28;20218;-90
2022/01/14 01:30:51;;;;;;;105.87;20.43;;;2.90;99.90;;;;;;5000967;28;20224;-90
2022/01/14 01:33:19;;;;;;;41.13;11.30;;;2.80;99.90;;;;;;5013222;28;20793;-89
2022/01/14 01:35:46;;;;;;;70.23;15.83;;;2.80;99.90;;;;;;5004432;28;20310;-89
2022/01/14 01:38:17;;;;;;;75.77;15.23;;;2.80;99.90;;;;;;5001433;28;20214;-89
2022/01/14 01:40:46;;;;;;;53.67;12.07;;;2.70;99.90;;;;;;5002488;28;20298;-89
2022/01/14 01:43:14;;;;;;;72.57;14.57;;;2.70;99.90;;;;;;5021547;28;20222;-89
2022/01/14 01:45:44;;;;;;;66.77;14.23;;;2.70;99.90;;;;;;5006268;28;20527;-89
2022/01/14 01:48:11;;;;;;;86.03;15.00;;;2.70;99.90;;;;;;5011653;28;20215;-89
2022/01/14 01:50:38;;;;;;;62.43;15.03;;;2.70;99.90;;;;;;4992840;28;20213;-89
2022/01/14 01:53:05;;;;;;;69.83;14.43;;;2.70;99.90;;;;;;5004003;28;20725;-89
2022/01/14 01:55:34;;;;;;;72.63;14.57;;;2.70;99.90;;;;;;4997104;28;20202;-89
2022/01/14 01:58:01;;;;;;;59.03;12.70;;;2.60;99.90;;;;;;5017133;28;20278;-88
2022/01/14 02:00:29;;;;;;;69.33;15.70;;;2.70;99.90;;;;;;4993050;28;20274;-89
2022/01/14 02:02:58;;;;;;;84.17;15.43;;;2.70;99.90;;;;;;5010222;28;20725;-90
2022/01/14 02:05:26;;;;;;;66.50;15.07;;;2.60;99.90;;;;;;5034254;28;20229;-88
2022/01/14 02:07:53;;;;;;;58.10;12.73;;;2.70;99.90;;;;;;5016348;28;20226;-89
2022/01/14 02:10:21;;;;;;;78.00;14.57;;;2.70;99.90;;;;;;5006414;28;20225;-89
2022/01/14 02:12:52;;;;;;;87.53;15.47;;;2.80;99.90;;;;;;4993301;28;20245;-88
2022/01/14 02:15:41;;;;;;;72.13;14.93;;;2.70;99.90;;;;;;4991214;28;20202;-90
2022/01/14 02:23:46;;;;;;;60.17;13.97;;;2.80;99.90;;;;;;4991176;28;20245;-89
2022/01/14 02:26:16;;;;;;;88.90;16.57;;;2.80;99.90;;;;;;4994315;28;20230;-89
2022/01/14 02:28:46;;;;;;;76.90;15.40;;;2.90;99.90;;;;;;4992742;28;20209;-90
2022/01/14 02:31:13;;;;;;;71.10;13.60;;;2.90;99.90;;;;;;4992645;28;20236;-89
2022/01/14 02:33:40;;;;;;;80.73;16.80;;;3.00;99.90;;;;;;4991931;28;20261;-89
2022/01/14 02:36:11;;;;;;;99.10;16.80;;;3.00;99.90;;;;;;4991755;28;20214;-89
2022/01/14 02:38:38;;;;;;;85.50;16.27;;;2.90;99.90;;;;;;5009580;28;20210;-89
2022/01/14 02:41:05;;;;;;;132.27;17.17;;;;;;;;;;4989040;28;20210;-90
2022/01/14 02:43:34;;;;;;;137.60;17.90;;;2.90;99.90;;;;;;4993422;28;20249;-89
2022/01/14 02:46:01;;;;;;;141.07;18.67;;;2.90;99.90;;;;;;4990374;28;20245;-89
2022/01/14 02:48:29;;;;;;;118.00;17.37;;;2.90;99.90;;;;;;5001946;28;20230;-89
2022/01/14 02:51:01;;;;;;;62.00;13.03;;;2.80;99.90;;;;;;4992096;28;20211;-88
2022/01/14 02:53:43;;;;;;;86.37;15.27;;;2.90;99.90;;;;;;4988657;28;20278;-89
2022/01/14 02:56:11;;;;;;;100.40;16.50;;;3.50;99.90;;;;;;4992417;28;20294;-88
2022/01/14 02:58:42;;;;;;;77.57;16.73;;;3.00;99.90;;;;;;4993083;28;20214;-89
2022/01/14 03:01:11;;;;;;;95.60;17.63;;;2.90;99.90;;;;;;4991836;28;20290;-90
2022/01/14 03:03:39;;;;;;;103.03;16.77;;;3.00;99.90;;;;;;4992308;28;20230;-89
2022/01/14 03:06:06;;;;;;;107.37;16.23;;;2.90;99.90;;;;;;4991903;28;20280;-89
2022/01/14 03:08:35;;;;;;;84.67;16.33;;;2.90;99.90;;;;;;4991691;28;20225;-89
2022/01/14 03:11:09;;;;;;;85.83;16.17;;;2.90;99.90;;;;;;4993021;28;20292;-89
2022/01/14 03:13:36;;;;;;;107.23;17.10;;;2.90;99.90;;;;;;4991451;28;20228;-89
2022/01/14 03:16:04;;;;;;;83.50;15.33;;;3.90;99.90;;;;;;4992831;28;20214;-89
2022/01/14 03:18:39;;;;;;;95.23;16.73;;;2.90;99.90;;;;;;5008575;28;20912;-89
2022/01/14 03:21:14;;;;;;;104.33;17.93;;;2.90;99.90;;;;;;4986464;28;21335;-89
2022/01/14 03:23:46;;;;;;;87.47;18.03;;;2.90;99.90;;;;;;4991364;28;20241;-89
2022/01/14 03:26:14;;;;;;;96.97;18.17;;;2.90;99.90;;;;;;4990050;28;20215;-89
2022/01/14 03:28:43;;;;;;;74.20;16.30;;;2.90;99.90;;;;;;4991861;28;20217;-89
2022/01/14 03:31:10;;;;;;;69.13;13.70;;;4.20;99.90;;;;;;4992956;28;20218;-90
2022/01/14 03:33:38;;;;;;;69.97;16.33;;;2.90;99.90;;;;;;4992390;28;20284;-89
2022/01/14 03:36:07;;;;;;;72.30;16.50;;;2.90;99.90;;;;;;4994479;28;20222;-88
2022/01/14 03:38:34;;;;;;;98.77;18.63;;;2.80;99.90;;;;;;4992490;28;20306;-89
2022/01/14 03:41:06;;;;;;;67.87;15.67;;;2.80;99.90;;;;;;4993385;28;20225;-89
2022/01/14 03:43:35;;;;;;;65.27;15.60;;;2.80;99.90;;;;;;5014981;28;20225;-89
2022/01/14 03:46:02;;;;;;;77.47;17.20;;;2.80;99.90;;;;;;5031947;28;20207;-90
2022/01/14 03:48:30;;;;;;;79.17;17.73;;;2.80;99.90;;;;;;5014378;28;20249;-89
2022/01/14 03:50:57;;;;;;;79.03;17.13;;;2.80;99.90;;;;;;4990427;28;20211;-89
2022/01/14 03:53:24;;;;;;;73.57;16.50;;;2.80;99.90;;;;;;4987537;28;20605;-90
2022/01/14 03:55:50;;;;;;;71.83;16.63;;;2.80;99.90;;;;;;5007322;28;20215;-89
2022/01/14 03:58:19;;;;;;;82.67;16.67;;;;;;;;;;4996128;28;20813;-89
2022/01/14 04:00:46;;;;;;;62.50;15.57;;;2.80;99.90;;;;;;4996187;28;20247;-90
2022/01/14 04:03:13;;;;;;;73.73;15.97;;;2.70;99.90;;;;;;5011140;28;20235;-89
2022/01/14 04:05:40;;;;;;;69.57;15.30;;;2.70;99.90;;;;;;4993184;28;20238;-89
2022/01/14 04:08:07;;;;;;;57.87;14.03;;;2.80;99.90;;;;;;4994616;28;20227;-89
2022/01/14 04:10:34;;;;;;;66.00;13.93;;;2.80;99.90;;;;;;4994139;28;20214;-89
2022/01/14 04:13:10;;;;;;;58.57;12.97;;;3.70;99.90;;;;;;5032685;28;20223;-91
2022/01/14 04:15:40;;;;;;;81.50;16.17;;;2.80;99.90;;;;;;5016535;28;20193;-91
2022/01/14 04:18:09;;;;;;;77.20;16.67;;;2.70;99.90;;;;;;5015497;28;20203;-89
2022/01/14 04:20:38;;;;;;;75.37;16.73;;;2.70;99.90;;;;;;4996043;28;20701;-89
2022/01/14 04:23:06;;;;;;;87.13;17.13;;;2.70;99.90;;;;;;4992113;28;20296;-89
2022/01/14 04:25:34;;;;;;;53.40;14.00;;;4.70;99.90;;;;;;4995262;28;20218;-90
2022/01/14 04:28:01;;;;;;;78.90;14.93;;;2.70;99.90;;;;;;4993044;28;20214;-89
2022/01/14 04:30:28;;;;;;;68.93;15.63;;;2.70;99.90;;;;;;4995500;28;20214;-89
2022/01/14 04:32:56;;;;;;;64.30;14.17;;;3.20;99.90;;;;;;4995014;28;20238;-89
2022/01/14 04:35:25;;;;;;;103.00;16.83;;;2.60;99.90;;;;;;4992277;28;20242;-88
2022/01/14 04:37:52;;;;;;;77.77;15.23;;;2.60;99.90;;;;;;5011230;28;20199;-89
2022/01/14 04:40:19;;;;;;;94.67;17.53;;;2.60;99.90;;;;;;4994716;28;20751;-90
2022/01/14 04:42:47;;;;;;;69.67;16.57;;;2.70;99.90;;;;;;4994460;28;20244;-89
2022/01/14 04:45:28;;;;;;;89.70;17.57;;;2.70;99.90;;;;;;4994236;28;20221;-89
2022/01/14 04:47:57;;;;;;;69.77;13.47;;;2.70;99.90;;;;;;5010449;28;20229;-89
2022/01/14 04:50:25;;;;;;;71.40;14.83;;;2.70;99.90;;;;;;4993372;28;20602;-88
2022/01/14 04:52:52;;;;;;;88.87;19.10;;;2.70;99.90;;;;;;5010331;28;20230;-89
2022/01/14 04:55:21;;;;;;;93.50;17.77;;;2.70;99.90;;;;;;4998919;28;20690;-88
2022/01/14 04:57:49;;;;;;;119.73;20.00;;;2.70;99.90;;;;;;5009877;28;20201;-91
2022/01/14 05:00:24;;;;;;;84.87;18.03;;;2.70;99.90;;;;;;5008829;28;20207;-89
2022/01/14 05:02:53;;;;;;;60.73;14.67;;;2.70;99.90;;;;;;4995119;28;20586;-88
2022/01/14 05:05:24;;;;;;;94.73;15.00;;;2.70;99.90;;;;;;4993592;28;20250;-89
2022/01/14 05:07:52;;;;;;;73.13;17.67;;;2.70;99.90;;;;;;4994090;28;20222;-89
2022/01/14 05:10:33;;;;;;;76.30;18.10;;;2.70;99.90;;;;;;4989012;28;20241;-89
2022/01/14 05:13:01;;;;;;;74.40;16.90;;;3.10;99.90;;;;;;4993881;28;20230;-89
2022/01/14 05:15:28;;;;;;;82.30;18.27;;;2.80;99.90;;;;;;4992349;28;20206;-88
2022/01/14 05:17:55;;;;;;;67.07;16.77;;;2.80;99.90;;;;;;5008217;28;20206;-89
2022/01/14 05:20:23;;;;;;;85.90;17.50;;;;;;;;;;4992395;28;20591;-89
2022/01/14 05:22:51;;;;;;;106.37;20.00;;;2.80;99.90;;;;;;4993306;28;20230;-89
2022/01/14 05:25:17;;;;;;;80.23;17.57;;;2.80;99.90;;;;;;5010496;28;20225;-88
2022/01/14 05:27:45;;;;;;;87.27;17.53;;;2.80;99.90;;;;;;5008968;28;20233;-89
2022/01/14 05:30:14;;;;;;;73.50;16.80;;;2.80;99.90;;;;;;4994842;28;20248;-90
2022/01/14 05:32:47;;;;;;;66.30;17.43;;;2.80;99.90;;;;;;4982589;28;20687;-89
2022/01/14 05:35:15;;;;;;;99.97;17.63;;;2.80;99.90;;;;;;4993017;28;20209;-89
2022/01/14 05:37:44;;;;;;;81.50;17.43;;;3.00;99.90;;;;;;4992935;28;20221;-89
2022/01/14 05:40:12;;;;;;;80.30;18.03;;;2.80;99.90;;;;;;4994502;28;20223;-89
2022/01/14 05:42:39;;;;;;;116.57;18.43;;;2.80;99.90;;;;;;4994299;28;20237;-89
2022/01/14 05:45:07;;;;;;;72.00;18.03;;;2.70;99.90;;;;;;4993045;28;20201;-89
2022/01/14 05:47:35;;;;;;;90.30;18.10;;;2.70;99.90;;;;;;4992258;28;20231;-88
2022/01/14 05:50:09;;;;;;;90.20;17.10;;;2.70;99.90;;;;;;4995172;28;20215;-93
2022/01/14 05:52:42;;;;;;;70.23;15.87;;;2.70;99.90;;;;;;4995708;28;20312;-92
2022/01/14 05:55:23;;;;;;;69.83;16.90;;;2.70;99.90;;;;;;4996748;28;20209;-92
2022/01/14 05:57:51;;;;;;;75.03;18.73;;;2.70;99.90;;;;;;4994190;28;20606;-89
2022/01/14 06:00:20;;;;;;;70.53;17.70;;;2.70;99.90;;;;;;4994079;28;20223;-89
2022/01/14 06:02:50;;;;;;;91.97;20.07;;;3.50;99.90;;;;;;4993859;28;20230;-88
2022/01/14 06:05:17;;;;;;;88.00;18.07;;;2.70;99.90;;;;;;4993081;28;20218;-89
2022/01/14 06:07:46;;;;;;;88.37;20.03;;;2.60;99.90;;;;;;4991817;28;20219;-89
2022/01/14 06:10:13;;;;;;;81.33;19.50;;;2.70;99.90;;;;;;4998304;28;20207;-89
2022/01/14 06:12:41;;;;;;;83.40;19.13;;;4.70;99.90;;;;;;5004996;28;20231;-88
2022/01/14 06:15:08;;;;;;;87.27;19.30;;;2.70;99.90;;;;;;4992237;28;20214;-88
2022/01/14 06:17:36;;;;;;;102.47;21.87;;;2.70;99.90;;;;;;4990106;28;20994;-89
2022/01/14 06:20:03;;;;;;;99.53;18.93;;;2.80;99.90;;;;;;4992969;28;20230;-90
2022/01/14 06:22:30;;;;;;;101.83;21.03;;;2.80;99.90;;;;;;4990801;28;20249;-90
2022/01/14 06:25:00;;;;;;;97.20;21.07;;;4.00;99.90;;;;;;4987624;28;20248;-89
2022/01/14 06:27:27;;;;;;;89.60;21.50;;;2.90;99.90;;;;;;5003648;28;20253;-89
2022/01/14 06:29:54;;;;;;;122.97;22.40;;;2.90;99.90;;;;;;4991627;28;20744;-89
2022/01/14 06:32:20;;;;;;;76.73;19.00;;;3.00;99.90;;;;;;4990459;28;20246;-89
2022/01/14 06:34:49;;;;;;;83.40;20.73;;;3.00;99.90;;;;;;4994134;28;20222;-88
2022/01/14 06:37:16;;;;;;;120.03;19.03;;;3.00;99.90;;;;;;4993492;28;20207;-89
2022/01/14 06:39:44;;;;;;;126.37;24.10;;;2.70;99.90;;;;;;4991400;28;20288;-87
2022/01/14 06:42:13;;;;;;;110.13;21.93;;;;;;;;;;4992018;28;20218;-87
2022/01/14 06:44:41;;;;;;;110.50;20.37;;;3.10;99.90;;;;;;4993600;28;20222;-88
2022/01/14 06:47:08;;;;;;;73.90;19.70;;;3.10;99.90;;;;;;4989479;28;20229;-88
2022/01/14 06:49:35;;;;;;;91.97;22.00;;;4.50;99.90;;;;;;5001496;28;20959;-88
2022/01/14 06:52:02;;;;;;;86.63;20.73;;;3.00;99.90;;;;;;4987963;28;20222;-88
2022/01/14 06:54:30;;;;;;;72.57;20.43;;;3.00;99.90;;;;;;5006127;28;20222;-88
2022/01/14 06:56:57;;;;;;;85.33;21.10;;;3.90;99.90;;;;;;5010162;28;20655;-87
2022/01/14 06:59:25;;;;;;;90.73;19.80;;;2.90;99.90;;;;;;5000754;28;20258;-88
2022/01/14 07:01:53;;;;;;;115.60;24.60;;;3.00;99.90;;;;;;4994471;28;20302;-89
2022/01/14 07:04:20;;;;;;;75.87;19.63;;;3.00;99.90;;;;;;5008582;28;20218;-89
2022/01/14 07:06:47;;;;;;;106.73;22.03;;;3.00;99.90;;;;;;4992333;28;20346;-89
2022/01/14 07:09:14;;;;;;;102.67;22.50;;;3.00;99.90;;;;;;5007296;28;20218;-88
2022/01/14 07:11:43;;;;;;;88.30;22.33;;;3.00;99.90;;;;;;4996842;28;20454;-88
2022/01/14 07:14:10;;;;;;;101.17;23.23;;;3.00;99.90;;;;;;5005875;28;20218;-88
2022/01/14 07:16:39;;;;;;;91.50;21.83;;;2.70;99.90;;;;;;5006710;28;20207;-87
2022/01/14 07:19:06;;;;;;;96.43;22.47;;;3.00;99.90;;;;;;5009066;28;20213;-88
2022/01/14 07:21:34;;;;;;;91.90;22.53;;;3.10;99.90;;;;;;5029452;28;20214;-86
2022/01/14 07:24:01;;;;;;;86.67;21.77;;;3.10;99.90;;;;;;5017801;28;20218;-87
2022/01/14 07:26:28;;;;;;;117.07;22.63;;;3.00;99.90;;;;;;4995160;28;20219;-89
2022/01/14 07:29:05;;;;;;;88.97;21.07;;;3.10;99.90;;;;;;4997141;28;20230;-88
2022/01/14 07:31:34;;;;;;;93.47;21.03;;;3.10;99.90;;;;;;4995801;28;20222;-88
2022/01/14 07:34:03;;;;;;;74.27;19.00;;;3.10;99.90;;;;;;4996754;28;20226;-90
2022/01/14 07:36:31;;;;;;;100.67;24.17;;;3.90;99.90;;;;;;5013191;28;20760;-91
2022/01/14 07:38:58;;;;;;;75.00;21.27;;;3.10;99.90;;;;;;4999921;28;20305;-90
2022/01/14 07:41:25;;;;;;;89.60;22.63;;;3.40;99.90;;;;;;5003593;28;20219;-90
2022/01/14 07:43:52;;;;;;;98.90;22.67;;;3.00;99.90;;;;;;4997158;28;20230;-91
2022/01/14 07:46:19;;;;;;;86.53;20.77;;;3.10;99.90;;;;;;5016510;28;20210;-90
2022/01/14 07:48:46;;;;;;;90.27;24.47;;;;;;;;;;4998899;28;20226;-90
2022/01/14 07:51:14;;;;;;;86.07;24.50;;;3.20;99.90;;;;;;5005734;28;20225;-90
2022/01/14 07:53:42;;;;;;;63.10;19.07;;;3.20;99.90;;;;;;5017448;28;20268;-91
2022/01/14 07:56:13;;;;;;;87.27;19.30;;;3.30;99.90;;;;;;5003967;28;20214;-91
2022/01/14 07:58:41;;;;;;;90.80;23.33;;;3.70;99.90;;;;;;5020160;28;20217;-90
2022/01/14 08:01:09;;;;;;;80.73;21.67;;;3.30;99.90;;;;;;5001258;28;20217;-91
2022/01/14 08:03:36;;;;;;;83.57;23.07;;;3.30;99.90;;;;;;4995407;28;20230;-91
2022/01/14 08:06:04;;;;;;;90.67;22.17;;;3.30;99.90;;;;;;4994772;28;20215;-91
2022/01/14 08:08:35;;;;;;;105.37;23.50;;;3.30;99.90;;;;;;4996727;28;20246;-91
2022/01/14 08:11:02;;;;;;;97.83;23.90;;;3.80;99.90;;;;;;4996601;28;20693;-91
2022/01/14 08:13:29;;;;;;;90.40;22.17;;;;;;;;;;5014019;28;20238;-91
2022/01/14 08:15:56;;;;;;;101.20;24.87;;;3.40;99.90;;;;;;4996168;28;20715;-90
2022/01/14 08:18:23;;;;;;;95.20;23.90;;;3.40;99.90;;;;;;4996413;28;20211;-90
2022/01/14 08:20:50;;;;;;;130.20;26.67;;;3.40;99.90;;;;;;4996974;28;20214;-88
2022/01/14 08:23:19;;;;;;;82.63;20.87;;;3.40;99.90;;;;;;4998376;28;20226;-90
2022/01/14 08:25:47;;;;;;;97.73;21.93;;;3.40;99.90;;;;;;5014627;28;20287;-89
2022/01/14 08:28:14;;;;;;;79.33;20.83;;;3.40;99.90;;;;;;4997542;28;20247;-89
2022/01/14 08:30:41;;;;;;;97.17;21.07;;;3.50;99.90;;;;;;5008863;28;20280;-89
2022/01/14 08:33:08;;;;;;;82.93;22.27;;;3.50;99.90;;;;;;5013074;28;20226;-88
2022/01/14 08:35:34;;;;;;;100.50;24.10;;;3.50;99.90;;;;;;4990354;28;20218;-89
2022/01/14 08:38:04;;;;;;;119.80;24.47;;;3.60;99.90;;;;;;4996267;28;20305;-89
2022/01/14 08:40:32;;;;;;;100.73;23.40;;;3.60;99.90;;;;;;4999231;28;20214;-88
2022/01/14 08:43:00;;;;;;;120.50;25.93;;;;;;;;;;5014444;28;20706;-88
2022/01/14 08:45:27;;;;;;;100.50;24.20;;;3.70;99.90;;;;;;5004662;28;20206;-89
2022/01/14 08:47:55;;;;;;;117.17;26.33;;;3.80;99.90;;;;;;5000245;28;20218;-89
2022/01/14 08:50:24;;;;;;;94.30;24.77;;;3.80;99.90;;;;;;5003859;28;20224;-88
2022/01/14 08:52:51;;;;;;;95.33;25.57;;;3.80;99.90;;;;;;5011545;28;20235;-88
2022/01/14 08:55:19;;;;;;;103.77;25.63;;;3.80;99.90;;;;;;5014245;28;20199;-88
2022/01/14 08:57:47;;;;;;;123.10;26.17;;;3.80;99.90;;;;;;5015592;28;20195;-88
2022/01/14 09:00:17;;;;;;;82.47;22.93;;;3.80;99.90;;;;;;5031699;28;20202;-88
2022/01/14 09:02:44;;;;;;;105.60;24.97;;;3.80;99.90;;;;;;5014118;28;20317;-88
2022/01/14 09:05:11;;;;;;;111.77;27.67;;;3.80;99.90;;;;;;5009625;28;20205;-88
2022/01/14 09:07:39;;;;;;;87.17;22.07;;;3.70;99.90;;;;;;5008242;28;20215;-89
2022/01/14 09:10:08;;;;;;;104.40;26.50;;;3.80;99.90;;;;;;4995566;28;20234;-88
2022/01/14 09:12:37;;;;;;;124.27;28.73;;;3.90;99.90;;;;;;4999565;28;20915;-88
2022/01/14 09:15:06;;;;;;;155.50;33.03;;;3.90;99.90;;;;;;5007756;28;20284;-89
2022/01/14 09:17:35;;;;;;;143.40;32.90;;;3.90;99.90;;;;;;4994154;28;20724;-88
2022/01/14 09:20:03;;;;;;;105.93;26.67;;;3.90;99.90;;;;;;4995992;28;20211;-88
2022/01/14 09:22:31;;;;;;;134.47;31.50;;;4.40;99.90;;;;;;4995103;28;20245;-88
2022/01/14 09:24:59;;;;;;;123.83;30.53;;;4.10;99.90;;;;;;4995598;28;20215;-88
2022/01/14 09:27:27;;;;;;;123.90;31.77;;;4.20;99.90;;;;;;5013916;28;20242;-88
2022/01/14 09:29:55;;;;;;;140.43;30.13;;;4.20;99.90;;;;;;5004742;28;20572;-89
2022/01/14 09:32:22;;;;;;;137.77;31.23;;;4.30;99.90;;;;;;4996138;28;20722;-88
2022/01/14 09:34:50;;;;;;;140.23;30.17;;;5.50;99.90;;;;;;4995076;28;20599;-88
2022/01/14 09:37:17;;;;;;;119.40;29.33;;;4.60;99.90;;;;;;4994449;28;20218;-88
2022/01/14 09:39:44;;;;;;;121.57;28.53;;;4.50;99.90;;;;;;5011511;28;20682;-88
2022/01/14 09:42:12;;;;;;;111.30;28.30;;;4.60;99.90;;;;;;4994717;28;20214;-89
2022/01/14 09:44:39;;;;;;;117.63;30.33;;;4.60;99.90;;;;;;5000182;28;20210;-88
2022/01/14 09:47:07;;;;;;;144.37;32.00;;;4.70;99.90;;;;;;5006333;28;20242;-88
2022/01/14 09:49:34;;;;;;;116.67;29.57;;;4.60;99.90;;;;;;5000146;28;20222;-88
2022/01/14 09:52:02;;;;;;;170.17;30.33;;;5.80;99.90;;;;;;4997307;28;20220;-86
2022/01/14 09:54:29;;;;;;;133.67;27.20;;;4.80;99.90;;;;;;5018990;28;20214;-88
2022/01/14 09:56:56;;;;;;;143.70;28.63;;;6.40;99.90;;;;;;5021539;28;20302;-88
2022/01/14 09:59:23;;;;;;;127.27;28.03;;;4.80;99.90;;;;;;5018858;28;20211;-88
2022/01/14 10:01:50;;;;;;;132.13;28.07;;;4.80;99.90;;;;;;4994234;28;20210;-89
2022/01/14 10:04:19;;;;;;;150.77;27.90;;;4.80;99.90;;;;;;5012024;28;20465;-88
2022/01/14 10:06:49;;;;;;;160.20;26.53;;;4.90;99.90;;;;;;4999881;28;20214;-88
2022/01/14 10:09:21;;;;;;;133.90;27.70;;;4.80;99.90;;;;;;4999511;28;20246;-89
2022/01/14 10:12:00;;;;;;;124.70;27.33;;;4.80;99.90;;;;;;4996057;28;20253;-89
2022/01/14 10:14:28;;;;;;;131.17;27.17;;;6.40;99.90;;;;;;4995063;28;20597;-88
2022/01/14 10:16:58;;;;;;;132.77;26.00;;;4.70;99.90;;;;;;4995472;28;20223;-89
2022/01/14 10:19:26;;;;;;;119.47;25.13;;;4.80;99.90;;;;;;5009791;28;20214;-89
2022/01/14 10:21:54;;;;;;;129.33;28.40;;;5.20;99.90;;;;;;4995805;28;20539;-88
2022/01/14 10:24:23;;;;;;;110.80;25.77;;;4.80;99.90;;;;;;5012203;28;20706;-88
2022/01/14 10:26:53;;;;;;;119.30;26.93;;;6.40;99.90;;;;;;4995717;28;20206;-89
2022/01/14 10:29:28;;;;;;;106.67;28.33;;;5.80;99.90;;;;;;4996608;28;20230;-88
2022/01/14 10:31:56;;;;;;;142.63;30.50;;;5.70;99.90;;;;;;5001061;28;20210;-88
2022/01/14 10:34:23;;;;;;;121.50;25.93;;;4.90;99.90;;;;;;5004235;28;20198;-88
2022/01/14 10:37:12;;;;;;;112.67;26.50;;;5.10;99.90;;;;;;5020028;28;20263;-89
2022/01/14 10:39:47;;;;;;;130.90;27.10;;;4.90;99.90;;;;;;4996506;28;20207;-89
2022/01/14 10:42:26;;;;;;;120.70;28.80;;;4.90;99.90;;;;;;4997914;28;20218;-89
2022/01/14 10:44:54;;;;;;;125.90;28.40;;;4.90;99.90;;;;;;4996564;28;20225;-90
2022/01/14 10:47:23;;;;;;;110.67;26.57;;;5.00;99.90;;;;;;4997354;28;20248;-90
2022/01/14 10:49:56;;;;;;;104.40;29.03;;;5.00;99.90;;;;;;5014977;28;20234;-89
2022/01/14 10:52:25;;;;;;;145.73;28.73;;;5.00;99.90;;;;;;4996872;28;20675;-90
2022/01/14 10:54:55;;;;;;;133.77;26.90;;;5.00;99.90;;;;;;5014030;28;20241;-90
2022/01/14 10:57:25;;;;;;;106.67;26.63;;;5.00;99.90;;;;;;4998526;28;20302;-89
2022/01/14 10:59:55;;;;;;;123.73;28.13;;;4.90;99.90;;;;;;5001167;28;20230;-90
2022/01/14 11:02:37;;;;;;;110.87;26.60;;;5.00;99.90;;;;;;5005033;28;20694;-89
2022/01/14 11:05:06;;;;;;;111.13;26.90;;;5.10;99.90;;;;;;4989132;28;20248;-89
2022/01/14 11:07:33;;;;;;;109.57;27.33;;;5.00;99.90;;;;;;4995920;28;20219;-89
2022/01/14 11:10:12;;;;;;;117.90;28.47;;;5.10;99.90;;;;;;4998334;28;20234;-89
2022/01/14 11:12:41;;;;;;;96.70;26.33;;;5.10;99.90;;;;;;5015497;28;20765;-89
2022/01/14 11:15:09;;;;;;;113.03;28.13;;;5.20;99.90;;;;;;5017020;28;20264;-89
2022/01/14 11:17:37;;;;;;;110.50;27.63;;;5.20;99.90;;;;;;4996982;28;20274;-89
2022/01/14 11:20:06;;;;;;;116.83;28.50;;;5.60;99.90;;;;;;4998283;28;20214;-89
2022/01/14 11:25:27;;;;;;;119.83;28.20;;;5.20;99.90;;;;;;4996716;28;20262;-89
2022/01/14 11:27:59;;;;;;;109.20;27.30;;;5.30;99.90;;;;;;5001547;28;20210;-89
2022/01/14 11:30:39;;;;;;;97.47;26.90;;;5.30;99.90;;;;;;5004138;28;20226;-89
2022/01/14 11:33:08;;;;;;;96.10;25.97;;;5.30;99.90;;;;;;5004205;28;20253;-89
2022/01/14 11:35:37;;;;;;;105.73;27.37;;;5.40;99.90;;;;;;5001261;28;20218;-88
2022/01/14 11:38:35;;;;;;;95.97;26.60;;;6.00;99.90;;;;;;4999554;28;20202;-89
2022/01/14 11:41:04;;;;;;;107.13;27.97;;;5.40;99.90;;;;;;4991942;28;20666;-89
2022/01/14 11:43:56;;;;;;;119.07;27.33;;;5.40;99.90;;;;;;4998718;28;20234;-89
2022/01/14 11:46:46;;;;;;;99.07;27.07;;;5.70;99.90;;;;;;4983633;28;20242;-88
2022/01/14 11:49:34;;;;;;;90.80;25.83;;;5.40;99.90;;;;;;4995057;28;20277;-89
2022/01/14 11:52:04;;;;;;;113.03;28.00;;;5.40;99.90;;;;;;4997003;28;20273;-90
2022/01/14 11:54:42;;;;;;;98.77;26.83;;;5.30;99.90;;;;;;4997754;28;20214;-89
2022/01/14 11:57:11;;;;;;;100.60;27.30;;;5.40;99.90;;;;;;5003872;28;20214;-89
2022/01/14 11:59:48;;;;;;;91.67;24.03;;;5.30;99.90;;;;;;4991813;28;21116;-92
2022/01/14 12:02:39;;;;;;;83.83;25.17;;;5.30;99.90;;;;;;4996374;28;20238;-90
2022/01/14 12:05:13;;;;;;;108.60;28.17;;;5.30;99.90;;;;;;4996158;28;20214;-89
2022/01/14 12:08:23;;;;;;;114.60;28.43;;;5.40;99.90;;;;;;4989138;28;20223;-89
2022/01/14 12:10:59;;;;;;;102.80;27.90;;;5.40;99.90;;;;;;5015364;28;20245;-90
2022/01/14 12:13:48;;;;;;;102.70;27.37;;;5.40;99.90;;;;;;5016707;28;20244;-90
2022/01/14 12:19:23;;;;;;;96.90;26.13;;;5.50;99.90;;;;;;4990272;28;20210;-90
2022/01/14 12:22:00;;;;;;;117.33;28.30;;;5.50;99.90;;;;;;4998067;28;20215;-90
2022/01/14 12:24:35;;;;;;;99.90;27.87;;;5.50;99.90;;;;;;4989819;28;20888;-89
2022/01/14 12:27:24;;;;;;;119.83;27.87;;;5.60;99.90;;;;;;4998940;28;20221;-90
2022/01/14 12:30:11;;;;;;;90.83;26.47;;;5.70;99.90;;;;;;4997175;28;20211;-90
2022/01/14 12:32:41;;;;;;;105.70;28.13;;;5.70;99.90;;;;;;4998019;28;20253;-90
2022/01/14 12:35:19;;;;;;;115.77;28.93;;;5.70;99.90;;;;;;5010747;28;20219;-93
2022/01/14 12:37:52;;;;;;;107.40;28.63;;;5.70;99.90;;;;;;5012810;28;20206;-91
2022/01/14 12:40:22;;;;;;;103.27;26.77;;;5.60;99.90;;;;;;5015625;28;20187;-89
2022/01/14 12:42:56;;;;;;;102.97;28.07;;;5.60;99.90;;;;;;4998196;28;20227;-89
2022/01/14 12:45:52;;;;;;;113.23;29.60;;;5.80;99.90;;;;;;4999444;28;20213;-90
2022/01/14 12:48:40;;;;;;;104.13;25.10;;;;;;;;;;4999985;28;20225;-89
2022/01/14 12:51:11;;;;;;;132.77;31.17;;;5.50;99.90;;;;;;4997698;28;20222;-88
2022/01/14 12:53:47;;;;;;;113.20;29.93;;;5.50;99.90;;;;;;5014059;28;20430;-89
2022/01/14 12:56:16;;;;;;;108.40;26.40;;;5.40;99.90;;;;;;5015376;28;20218;-90
2022/01/14 12:58:55;;;;;;;126.47;30.57;;;5.40;99.90;;;;;;4998255;28;20214;-89
2022/01/14 13:01:28;;;;;;;113.00;28.10;;;5.60;99.90;;;;;;5016193;28;20216;-89
2022/01/14 13:03:57;;;;;;;125.20;31.27;;;5.50;99.90;;;;;;4998300;28;20229;-89
2022/01/14 13:06:24;;;;;;;96.43;25.50;;;5.40;99.90;;;;;;4996754;28;20268;-89
2022/01/14 13:08:59;;;;;;;111.87;28.30;;;5.50;99.90;;;;;;4997584;28;20592;-90
2022/01/14 13:11:46;;;;;;;127.93;28.13;;;5.60;99.90;;;;;;4997981;28;20228;-89